createdAt,value
2023-04-28T00:00:24.784Z,938.21
2023-04-28T00:01:24.764Z,938.22
2023-04-28T00:02:24.874Z,938.18
2023-04-28T00:03:24.977Z,938.17
2023-04-28T00:04:25.261Z,938.19
2023-04-28T00:05:24.714Z,938.18
2023-04-28T00:06:24.735Z,938.20
2023-04-28T00:07:24.651Z,938.19
2023-04-28T00:08:24.683Z,938.17
2023-04-28T00:09:24.625Z,938.17
2023-04-28T00:10:24.691Z,938.14
2023-04-28T00:11:24.713Z,938.21
2023-04-28T00:12:24.658Z,938.19
2023-04-28T00:13:24.608Z,938.21
2023-04-28T00:14:24.590Z,938.18
2023-04-28T00:15:24.579Z,938.22
2023-04-28T00:16:29.293Z,938.20
2023-04-28T00:17:24.677Z,938.19
2023-04-28T00:18:24.800Z,938.20
2023-04-28T00:19:24.525Z,938.16
2023-04-28T00:20:24.528Z,938.14
2023-04-28T00:21:24.533Z,938.17
2023-04-28T00:22:24.551Z,938.16
2023-04-28T00:23:24.559Z,938.14
2023-04-28T00:24:24.512Z,938.17
2023-04-28T00:25:24.502Z,938.18
2023-04-28T00:26:24.626Z,938.16
2023-04-28T00:27:24.443Z,938.19
2023-04-28T00:28:33.485Z,938.18
2023-04-28T00:29:25.491Z,938.13
2023-04-28T00:30:24.438Z,938.16
2023-04-28T00:31:24.450Z,938.16
2023-04-28T00:32:24.412Z,938.16
2023-04-28T00:33:24.454Z,938.17
2023-04-28T00:34:24.399Z,938.16
2023-04-28T00:35:24.372Z,938.17
2023-04-28T00:36:24.352Z,938.19
2023-04-28T00:37:24.463Z,938.13
2023-04-28T00:38:24.341Z,938.10
2023-04-28T00:39:24.383Z,938.11
2023-04-28T00:40:24.334Z,938.05
2023-04-28T00:41:24.321Z,937.95
2023-04-28T00:42:24.395Z,937.90
2023-04-28T00:43:24.473Z,937.81
2023-04-28T00:44:24.364Z,937.84
2023-04-28T00:45:24.307Z,937.81
2023-04-28T00:46:24.352Z,937.81
2023-04-28T00:47:24.342Z,937.86
2023-04-28T00:48:24.256Z,937.85
2023-04-28T00:49:24.211Z,937.84
2023-04-28T00:50:24.213Z,937.86
2023-04-28T00:51:24.190Z,937.89
2023-04-28T00:52:24.335Z,937.87
2023-04-28T00:53:24.204Z,937.87
2023-04-28T00:54:24.248Z,937.85
2023-04-28T00:55:24.263Z,937.91
2023-04-28T00:56:24.136Z,937.91
2023-04-28T00:57:24.133Z,937.90
2023-04-28T00:58:24.147Z,937.91
2023-04-28T00:59:24.122Z,937.84
2023-04-28T01:00:24.166Z,937.78
2023-04-28T01:01:24.130Z,937.78
2023-04-28T01:02:24.228Z,937.75
2023-04-28T01:03:24.250Z,937.76
2023-04-28T01:04:24.180Z,937.73
2023-04-28T01:05:24.230Z,937.76
2023-04-28T01:06:24.153Z,937.75
2023-04-28T01:07:24.052Z,937.68
2023-04-28T01:08:24.037Z,937.74
2023-04-28T01:09:24.010Z,937.73
2023-04-28T01:10:24.007Z,937.72
2023-04-28T01:11:24.013Z,937.74
2023-04-28T01:12:24.034Z,937.78
2023-04-28T01:13:23.980Z,937.76
2023-04-28T01:14:23.989Z,937.82
2023-04-28T01:15:23.937Z,937.82
2023-04-28T01:16:28.824Z,937.82
2023-04-28T01:17:23.963Z,937.86
2023-04-28T01:18:23.914Z,937.81
2023-04-28T01:19:23.987Z,937.77
2023-04-28T01:20:23.942Z,937.79
2023-04-28T01:21:23.972Z,937.81
2023-04-28T01:22:24.056Z,937.79
2023-04-28T01:23:23.905Z,937.79
2023-04-28T01:24:24.027Z,937.83
2023-04-28T01:25:23.847Z,937.82
2023-04-28T01:26:23.853Z,937.84
2023-04-28T01:27:23.838Z,937.81
2023-04-28T01:28:23.801Z,937.76
2023-04-28T01:29:23.783Z,937.69
2023-04-28T01:30:23.861Z,937.68
2023-04-28T01:31:23.811Z,937.64
2023-04-28T01:32:23.809Z,937.61
2023-04-28T01:33:24.713Z,937.63
2023-04-28T01:34:23.762Z,937.62
2023-04-28T01:35:23.855Z,937.53
2023-04-28T01:36:23.718Z,937.50
2023-04-28T01:37:23.728Z,937.45
2023-04-28T01:38:23.687Z,937.44
2023-04-28T01:39:23.719Z,937.51
2023-04-28T01:40:23.701Z,937.57
2023-04-28T01:41:23.664Z,937.55
2023-04-28T01:42:23.668Z,937.61
2023-04-28T01:43:23.698Z,937.61
2023-04-28T01:44:23.637Z,937.63
2023-04-28T01:45:23.773Z,937.67
2023-04-28T01:46:23.742Z,937.66
2023-04-28T01:47:23.747Z,937.64
2023-04-28T01:48:23.860Z,937.64
2023-04-28T01:49:23.611Z,937.64
2023-04-28T01:50:23.558Z,937.59
2023-04-28T01:51:23.573Z,937.56
2023-04-28T01:52:23.544Z,937.50
2023-04-28T01:53:23.946Z,937.57
2023-04-28T01:54:23.536Z,937.57
2023-04-28T01:55:23.502Z,937.63
2023-04-28T01:56:23.594Z,937.59
2023-04-28T01:57:23.573Z,937.57
2023-04-28T01:58:23.532Z,937.51
2023-04-28T01:59:23.464Z,937.51
2023-04-28T02:00:23.464Z,937.54
2023-04-28T02:01:23.468Z,937.53
2023-04-28T02:02:23.571Z,937.51
2023-04-28T02:03:23.563Z,937.50
2023-04-28T02:04:23.501Z,937.49
2023-04-28T02:05:23.490Z,937.51
2023-04-28T02:06:23.406Z,937.48
2023-04-28T02:07:23.422Z,937.47
2023-04-28T02:08:23.426Z,937.51
2023-04-28T02:09:23.509Z,937.49
2023-04-28T02:10:23.380Z,937.48
2023-04-28T02:11:23.457Z,937.50
2023-04-28T02:12:23.336Z,937.47
2023-04-28T02:13:23.320Z,937.44
2023-04-28T02:14:23.304Z,937.41
2023-04-28T02:15:23.305Z,937.36
2023-04-28T02:16:23.317Z,937.36
2023-04-28T02:17:23.363Z,937.28
2023-04-28T02:18:23.289Z,937.31
2023-04-28T02:19:23.258Z,937.29
2023-04-28T02:20:23.265Z,937.27
2023-04-28T02:21:23.253Z,937.27
2023-04-28T02:22:23.216Z,937.24
2023-04-28T02:23:23.277Z,937.26
2023-04-28T02:24:23.210Z,937.21
2023-04-28T02:25:23.196Z,937.24
2023-04-28T02:26:23.225Z,937.23
2023-04-28T02:27:23.151Z,937.21
2023-04-28T02:28:23.157Z,937.19
2023-04-28T02:29:23.244Z,937.15
2023-04-28T02:30:23.122Z,937.18
2023-04-28T02:31:23.194Z,937.18
2023-04-28T02:32:23.197Z,937.13
2023-04-28T02:33:23.101Z,937.08
2023-04-28T02:34:23.131Z,937.12
2023-04-28T02:35:23.112Z,937.12
2023-04-28T02:36:23.091Z,937.16
2023-04-28T02:37:23.073Z,937.18
2023-04-28T02:38:23.042Z,937.19
2023-04-28T02:39:23.126Z,937.18
2023-04-28T02:40:23.152Z,937.21
2023-04-28T02:41:23.025Z,937.20
2023-04-28T02:42:23.043Z,937.19
2023-04-28T02:43:23.015Z,937.14
2023-04-28T02:44:22.995Z,937.11
2023-04-28T02:45:23.011Z,937.10
2023-04-28T02:46:22.997Z,937.11
2023-04-28T02:47:22.978Z,937.11
2023-04-28T02:48:22.991Z,937.15
2023-04-28T02:49:22.932Z,937.18
2023-04-28T02:50:22.938Z,937.16
2023-04-28T02:51:22.919Z,937.13
2023-04-28T02:52:22.923Z,937.17
2023-04-28T02:53:22.957Z,937.12
2023-04-28T02:54:22.940Z,937.12
2023-04-28T02:55:22.870Z,937.13
2023-04-28T02:56:22.879Z,937.11
2023-04-28T02:57:22.875Z,937.08
2023-04-28T02:58:22.851Z,937.07
2023-04-28T02:59:22.832Z,937.08
2023-04-28T03:00:23.841Z,937.08
2023-04-28T03:01:22.894Z,937.06
2023-04-28T03:02:22.948Z,937.10
2023-04-28T03:03:22.898Z,937.06
2023-04-28T03:04:23.095Z,937.06
2023-04-28T03:05:22.842Z,937.07
2023-04-28T03:06:22.767Z,936.98
2023-04-28T03:07:22.732Z,936.98
2023-04-28T03:08:22.747Z,936.96
2023-04-28T03:09:22.730Z,936.97
2023-04-28T03:10:22.715Z,936.97
2023-04-28T03:11:22.724Z,936.97
2023-04-28T03:12:22.686Z,936.95
2023-04-28T03:13:22.673Z,936.96
2023-04-28T03:14:22.699Z,936.95
2023-04-28T03:15:22.711Z,936.91
2023-04-28T03:16:22.732Z,936.95
2023-04-28T03:17:22.783Z,936.91
2023-04-28T03:18:22.970Z,936.96
2023-04-28T03:20:40.047Z,936.89
2023-04-28T03:21:39.912Z,936.91
2023-04-28T03:22:39.918Z,936.94
2023-04-28T03:23:39.855Z,936.91
2023-04-28T03:24:39.881Z,936.93
2023-04-28T03:25:39.858Z,936.92
2023-04-28T03:26:39.860Z,936.91
2023-04-28T03:27:39.879Z,936.92
2023-04-28T03:28:39.804Z,936.91
2023-04-28T03:29:39.848Z,936.94
2023-04-28T03:30:39.941Z,936.97
2023-04-28T03:31:39.848Z,936.93
2023-04-28T03:32:39.796Z,936.95
2023-04-28T03:33:39.799Z,936.96
2023-04-28T03:34:39.730Z,936.93
2023-04-28T03:35:39.716Z,936.97
2023-04-28T03:36:39.710Z,937.08
2023-04-28T03:37:39.750Z,937.08
2023-04-28T03:38:39.754Z,937.11
2023-04-28T03:39:39.692Z,937.13
2023-04-28T03:40:39.696Z,937.19
2023-04-28T03:41:39.928Z,937.20
2023-04-28T03:42:39.714Z,937.16
2023-04-28T03:43:39.677Z,937.14
2023-04-28T03:44:39.702Z,937.18
2023-04-28T03:45:39.673Z,937.17
2023-04-28T03:46:39.610Z,937.24
2023-04-28T03:47:39.662Z,937.28
2023-04-28T03:48:39.677Z,937.32
2023-04-28T03:49:39.588Z,937.36
2023-04-28T03:50:39.565Z,937.36
2023-04-28T03:51:39.572Z,937.39
2023-04-28T03:52:39.552Z,937.34
2023-04-28T03:53:39.600Z,937.31
2023-04-28T03:54:39.519Z,937.28
2023-04-28T03:55:39.522Z,937.25
2023-04-28T03:56:39.539Z,937.21
2023-04-28T03:57:39.508Z,937.25
2023-04-28T03:58:39.477Z,937.31
2023-04-28T03:59:39.494Z,937.20
2023-04-28T04:00:39.539Z,937.20
2023-04-28T04:01:39.524Z,937.24
2023-04-28T04:02:39.609Z,937.23
2023-04-28T04:03:39.676Z,937.29
2023-04-28T04:04:39.648Z,937.22
2023-04-28T04:05:39.514Z,937.18
2023-04-28T04:06:39.461Z,937.22
2023-04-28T04:07:39.403Z,937.14
2023-04-28T04:08:39.433Z,937.17
2023-04-28T04:09:39.452Z,937.23
2023-04-28T04:10:40.091Z,937.29
2023-04-28T04:11:39.408Z,937.29
2023-04-28T04:12:39.323Z,937.30
2023-04-28T04:13:39.356Z,937.28
2023-04-28T04:14:39.418Z,937.30
2023-04-28T04:15:39.381Z,937.33
2023-04-28T04:16:43.989Z,937.30
2023-04-28T04:17:39.348Z,937.34
2023-04-28T04:18:39.274Z,937.34
2023-04-28T04:19:39.364Z,937.36
2023-04-28T04:20:39.249Z,937.41
2023-04-28T04:21:39.289Z,937.51
2023-04-28T04:22:39.224Z,937.49
2023-04-28T04:23:39.229Z,937.50
2023-04-28T04:24:39.270Z,937.50
2023-04-28T04:25:39.267Z,937.50
2023-04-28T04:26:39.211Z,937.49
2023-04-28T04:27:39.177Z,937.50
2023-04-28T04:28:39.185Z,937.54
2023-04-28T04:29:39.197Z,937.51
2023-04-28T04:30:39.223Z,937.54
2023-04-28T04:31:39.505Z,937.56
2023-04-28T04:32:39.162Z,937.64
2023-04-28T04:33:39.140Z,937.63
2023-04-28T04:34:39.107Z,937.67
2023-04-28T04:35:39.178Z,937.70
2023-04-28T04:36:39.104Z,937.63
2023-04-28T04:37:39.114Z,937.68
2023-04-28T04:38:39.062Z,937.69
2023-04-28T04:39:39.058Z,937.73
2023-04-28T04:40:39.047Z,937.74
2023-04-28T04:41:39.039Z,937.76
2023-04-28T04:42:39.035Z,937.77
2023-04-28T04:43:39.001Z,937.77
2023-04-28T04:44:38.988Z,937.77
2023-04-28T04:45:38.980Z,937.83
2023-04-28T04:46:39.097Z,937.82
2023-04-28T04:47:39.004Z,937.80
2023-04-28T04:48:38.979Z,937.81
2023-04-28T04:49:38.938Z,937.83
2023-04-28T04:50:38.986Z,937.82
2023-04-28T04:51:38.914Z,937.81
2023-04-28T04:52:38.902Z,937.76
2023-04-28T04:53:38.894Z,937.78
2023-04-28T04:54:38.879Z,937.76
2023-04-28T04:55:38.877Z,937.80
2023-04-28T04:56:38.949Z,937.85
2023-04-28T04:57:38.887Z,937.83
2023-04-28T04:58:38.865Z,937.85
2023-04-28T04:59:38.840Z,937.83
2023-04-28T05:00:38.826Z,937.83
2023-04-28T05:01:38.897Z,937.84
2023-04-28T05:02:39.018Z,937.85
2023-04-28T05:03:38.978Z,937.85
2023-04-28T05:04:38.917Z,937.88
2023-04-28T05:05:38.807Z,937.86
2023-04-28T05:06:38.817Z,937.86
2023-04-28T05:07:38.877Z,937.83
2023-04-28T05:08:38.837Z,937.84
2023-04-28T05:09:38.779Z,937.89
2023-04-28T05:10:38.805Z,937.87
2023-04-28T05:11:38.766Z,937.89
2023-04-28T05:12:38.767Z,937.88
2023-04-28T05:13:38.707Z,937.87
2023-04-28T05:14:38.786Z,937.86
2023-04-28T05:15:38.678Z,937.88
2023-04-28T05:16:38.930Z,937.93
2023-04-28T05:17:38.743Z,937.91
2023-04-28T05:18:38.649Z,937.90
2023-04-28T05:19:38.669Z,937.83
2023-04-28T05:20:38.623Z,937.86
2023-04-28T05:21:38.664Z,937.81
2023-04-28T05:22:38.593Z,937.79
2023-04-28T05:23:38.809Z,937.77
2023-04-28T05:24:38.596Z,937.75
2023-04-28T05:25:38.569Z,937.77
2023-04-28T05:26:38.595Z,937.72
2023-04-28T05:27:38.554Z,937.80
2023-04-28T05:28:38.664Z,937.78
2023-04-28T05:29:38.599Z,937.78
2023-04-28T05:30:38.737Z,937.73
2023-04-28T05:31:38.545Z,937.72
2023-04-28T05:32:38.530Z,937.67
2023-04-28T05:33:38.530Z,937.63
2023-04-28T05:34:38.476Z,937.67
2023-04-28T05:35:38.517Z,937.64
2023-04-28T05:36:38.999Z,937.68
2023-04-28T05:37:38.456Z,937.70
2023-04-28T05:38:38.412Z,937.67
2023-04-28T05:39:38.419Z,937.67
2023-04-28T05:40:38.432Z,937.68
2023-04-28T05:41:38.535Z,937.68
2023-04-28T05:42:38.416Z,937.65
2023-04-28T05:43:38.435Z,937.68
2023-04-28T05:44:38.360Z,937.70
2023-04-28T05:45:38.606Z,937.68
2023-04-28T05:46:53.080Z,937.67
2023-04-28T05:47:38.637Z,937.66
2023-04-28T05:48:38.313Z,937.61
2023-04-28T05:49:38.299Z,937.61
2023-04-28T05:50:39.118Z,937.59
2023-04-28T05:51:38.315Z,937.59
2023-04-28T05:52:38.290Z,937.57
2023-04-28T05:53:38.257Z,937.58
2023-04-28T05:54:38.264Z,937.57
2023-04-28T05:55:38.311Z,937.56
2023-04-28T05:56:38.291Z,937.51
2023-04-28T05:57:49.211Z,937.46
2023-04-28T05:58:39.204Z,937.42
2023-04-28T05:59:38.263Z,937.43
2023-04-28T06:00:38.243Z,937.45
2023-04-28T06:01:38.303Z,937.44
2023-04-28T06:02:38.323Z,937.39
2023-04-28T06:03:38.407Z,937.37
2023-04-28T06:04:38.660Z,937.36
2023-04-28T06:05:38.248Z,937.33
2023-04-28T06:06:38.117Z,937.35
2023-04-28T06:07:38.182Z,937.31
2023-04-28T06:08:38.118Z,937.31
2023-04-28T06:09:38.102Z,937.30
2023-04-28T06:10:38.117Z,937.25
2023-04-28T06:11:38.094Z,937.29
2023-04-28T06:12:38.070Z,937.26
2023-04-28T06:13:38.140Z,937.23
2023-04-28T06:14:38.065Z,937.23
2023-04-28T06:15:38.047Z,937.27
2023-04-28T06:16:38.043Z,937.23
2023-04-28T06:17:38.100Z,937.23
2023-04-28T06:18:38.006Z,937.17
2023-04-28T06:19:38.079Z,937.22
2023-04-28T06:20:38.000Z,937.18
2023-04-28T06:21:37.978Z,937.17
2023-04-28T06:22:37.954Z,937.18
2023-04-28T06:23:37.951Z,937.15
2023-04-28T06:24:37.988Z,937.14
2023-04-28T06:25:37.929Z,937.15
2023-04-28T06:26:38.548Z,937.14
2023-04-28T06:27:37.916Z,937.15
2023-04-28T06:28:37.888Z,937.08
2023-04-28T06:29:37.934Z,937.12
2023-04-28T06:30:37.896Z,937.11
2023-04-28T06:31:37.901Z,937.15
2023-04-28T06:32:37.920Z,937.12
2023-04-28T06:33:37.902Z,937.10
2023-04-28T06:34:37.878Z,937.07
2023-04-28T06:35:37.851Z,937.10
2023-04-28T06:36:37.822Z,937.00
2023-04-28T06:37:37.820Z,937.00
2023-04-28T06:38:37.817Z,936.98
2023-04-28T06:39:37.789Z,937.01
2023-04-28T06:40:37.810Z,936.99
2023-04-28T06:41:37.770Z,936.95
2023-04-28T06:42:37.753Z,936.95
2023-04-28T06:43:37.830Z,936.95
2023-04-28T06:44:37.796Z,936.99
2023-04-28T06:45:37.718Z,936.97
2023-04-28T06:46:37.827Z,936.94
2023-04-28T06:47:37.707Z,936.92
2023-04-28T06:48:37.678Z,936.94
2023-04-28T06:49:37.701Z,936.96
2023-04-28T06:50:37.709Z,936.90
2023-04-28T06:51:37.700Z,936.91
2023-04-28T06:52:39.588Z,936.89
2023-04-28T06:53:37.650Z,936.93
2023-04-28T06:54:37.665Z,936.93
2023-04-28T06:55:37.611Z,936.94
2023-04-28T06:56:37.618Z,936.95
2023-04-28T06:57:37.789Z,936.94
2023-04-28T06:58:37.662Z,936.87
2023-04-28T06:59:37.588Z,936.85
2023-04-28T07:00:37.632Z,936.81
2023-04-28T07:01:37.576Z,936.81
2023-04-28T07:02:37.750Z,936.81
2023-04-28T07:03:37.627Z,936.79
2023-04-28T07:04:37.524Z,936.74
2023-04-28T07:05:37.549Z,936.77
2023-04-28T07:06:37.543Z,936.77
2023-04-28T07:07:37.480Z,936.72
2023-04-28T07:08:37.566Z,936.81
2023-04-28T07:09:37.492Z,936.77
2023-04-28T07:10:37.467Z,936.76
2023-04-28T07:11:37.491Z,936.72
2023-04-28T07:12:37.426Z,936.79
2023-04-28T07:13:37.429Z,936.77
2023-04-28T07:14:37.429Z,936.79
2023-04-28T07:15:37.825Z,936.76
2023-04-28T07:16:37.438Z,936.79
2023-04-28T07:17:37.475Z,936.74
2023-04-28T07:18:37.358Z,936.77
2023-04-28T07:19:37.433Z,936.74
2023-04-28T07:20:37.449Z,936.79
2023-04-28T07:21:37.360Z,936.75
2023-04-28T07:22:37.323Z,936.75
2023-04-28T07:23:37.349Z,936.72
2023-04-28T07:24:44.861Z,936.75
2023-04-28T07:25:37.314Z,936.79
2023-04-28T07:26:37.310Z,936.81
2023-04-28T07:27:37.270Z,936.79
2023-04-28T07:28:37.333Z,936.78
2023-04-28T07:29:37.264Z,936.75
2023-04-28T07:30:37.240Z,936.79
2023-04-28T07:31:37.232Z,936.77
2023-04-28T07:32:37.299Z,936.80
2023-04-28T07:33:37.217Z,936.77
2023-04-28T07:34:37.196Z,936.74
2023-04-28T07:35:37.188Z,936.76
2023-04-28T07:36:37.192Z,936.76
2023-04-28T07:37:37.187Z,936.76
2023-04-28T07:38:37.201Z,936.77
2023-04-28T07:39:37.152Z,936.78
2023-04-28T07:40:37.133Z,936.75
2023-04-28T07:41:37.145Z,936.81
2023-04-28T07:42:37.144Z,936.78
2023-04-28T07:43:37.140Z,936.75
2023-04-28T07:44:37.092Z,936.69
2023-04-28T07:45:37.099Z,936.64
2023-04-28T07:46:42.041Z,936.65
2023-04-28T07:47:37.097Z,936.64
2023-04-28T07:48:37.077Z,936.65
2023-04-28T07:49:37.027Z,936.68
2023-04-28T07:50:37.014Z,936.68
2023-04-28T07:51:37.009Z,936.66
2023-04-28T07:52:36.992Z,936.67
2023-04-28T07:53:37.013Z,936.62
2023-04-28T07:54:37.248Z,936.64
2023-04-28T07:55:36.973Z,936.64
2023-04-28T07:56:36.957Z,936.67
2023-04-28T07:57:36.972Z,936.65
2023-04-28T07:58:36.939Z,936.58
2023-04-28T07:59:36.978Z,936.57
2023-04-28T08:00:37.024Z,936.60
2023-04-28T08:01:36.913Z,936.59
2023-04-28T08:02:36.967Z,936.59
2023-04-28T08:03:37.177Z,936.62
2023-04-28T08:04:37.657Z,936.61
2023-04-28T08:05:36.946Z,936.61
2023-04-28T08:06:36.934Z,936.60
2023-04-28T08:07:36.835Z,936.60
2023-04-28T08:08:36.845Z,936.58
2023-04-28T08:09:36.864Z,936.56
2023-04-28T08:10:36.804Z,936.55
2023-04-28T08:11:36.902Z,936.59
2023-04-28T08:12:36.795Z,936.58
2023-04-28T08:13:36.778Z,936.63
2023-04-28T08:14:36.810Z,936.61
2023-04-28T08:15:36.800Z,936.63
2023-04-28T08:16:36.755Z,936.67
2023-04-28T08:17:36.921Z,936.68
2023-04-28T08:18:36.876Z,936.70
2023-04-28T08:19:36.727Z,936.70
2023-04-28T08:20:36.706Z,936.75
2023-04-28T08:21:36.706Z,936.70
2023-04-28T08:22:36.726Z,936.70
2023-04-28T08:23:36.703Z,936.71
2023-04-28T08:24:36.759Z,936.78
2023-04-28T08:25:36.670Z,936.71
2023-04-28T08:26:36.658Z,936.72
2023-04-28T08:27:36.626Z,936.74
2023-04-28T08:28:36.646Z,936.70
2023-04-28T08:29:36.606Z,936.68
2023-04-28T08:30:36.642Z,936.76
2023-04-28T08:31:36.685Z,936.71
2023-04-28T08:32:36.596Z,936.63
2023-04-28T08:33:36.571Z,936.71
2023-04-28T08:34:36.542Z,936.72
2023-04-28T08:35:36.532Z,936.68
2023-04-28T08:36:36.588Z,936.74
2023-04-28T08:37:36.552Z,936.74
2023-04-28T08:38:36.540Z,936.77
2023-04-28T08:39:36.500Z,936.86
2023-04-28T08:40:36.498Z,936.86
2023-04-28T08:41:36.497Z,936.78
2023-04-28T08:42:36.539Z,936.91
2023-04-28T08:43:36.452Z,936.88
2023-04-28T08:44:37.058Z,936.89
2023-04-28T08:45:36.442Z,936.84
2023-04-28T08:46:36.452Z,936.86
2023-04-28T08:47:36.444Z,936.88
2023-04-28T08:48:36.444Z,936.87
2023-04-28T08:49:36.409Z,936.82
2023-04-28T08:50:36.376Z,936.83
2023-04-28T08:51:36.364Z,936.78
2023-04-28T08:52:36.360Z,936.80
2023-04-28T08:53:52.197Z,936.84
2023-04-28T08:54:37.464Z,936.85
2023-04-28T08:55:36.340Z,936.89
2023-04-28T08:56:36.333Z,936.85
2023-04-28T08:57:36.334Z,936.91
2023-04-28T08:58:36.320Z,936.93
2023-04-28T08:59:36.287Z,936.85
2023-04-28T09:00:36.310Z,936.86
2023-04-28T09:01:36.324Z,936.89
2023-04-28T09:02:36.481Z,936.87
2023-04-28T09:03:36.496Z,936.83
2023-04-28T09:04:36.476Z,936.84
2023-04-28T09:05:36.240Z,936.80
2023-04-28T09:06:36.261Z,936.86
2023-04-28T09:07:36.204Z,936.93
2023-04-28T09:08:36.214Z,936.85
2023-04-28T09:09:39.060Z,936.90
2023-04-28T09:10:36.201Z,936.79
2023-04-28T09:11:36.198Z,936.80
2023-04-28T09:12:36.188Z,936.80
2023-04-28T09:13:36.334Z,936.81
2023-04-28T09:14:36.158Z,936.74
2023-04-28T09:15:36.147Z,936.72
2023-04-28T09:16:36.181Z,936.67
2023-04-28T09:17:36.129Z,936.71
2023-04-28T09:18:36.089Z,936.68
2023-04-28T09:19:36.115Z,936.69
2023-04-28T09:20:36.091Z,936.70
2023-04-28T09:21:36.054Z,936.66
2023-04-28T09:22:36.091Z,936.70
2023-04-28T09:23:36.047Z,936.71
2023-04-28T09:24:36.033Z,936.73
2023-04-28T09:25:36.036Z,936.67
2023-04-28T09:26:36.001Z,936.71
2023-04-28T09:27:36.009Z,936.66
2023-04-28T09:28:36.010Z,936.70
2023-04-28T09:29:36.111Z,936.67
2023-04-28T09:30:35.986Z,936.66
2023-04-28T09:31:35.988Z,936.66
2023-04-28T09:32:36.082Z,936.72
2023-04-28T09:33:35.938Z,936.63
2023-04-28T09:34:35.962Z,936.64
2023-04-28T09:35:35.961Z,936.61
2023-04-28T09:36:35.904Z,936.61
2023-04-28T09:37:35.901Z,936.58
2023-04-28T09:38:35.901Z,936.61
2023-04-28T09:39:35.873Z,936.56
2023-04-28T09:40:35.889Z,936.54
2023-04-28T09:41:35.858Z,936.55
2023-04-28T09:42:35.843Z,936.54
2023-04-28T09:43:35.844Z,936.59
2023-04-28T09:44:35.873Z,936.54
2023-04-28T09:45:35.875Z,936.60
2023-04-28T09:46:35.838Z,936.58
2023-04-28T09:47:35.862Z,936.58
2023-04-28T09:48:35.821Z,936.62
2023-04-28T09:49:35.821Z,936.61
2023-04-28T09:50:35.754Z,936.62
2023-04-28T09:51:35.737Z,936.56
2023-04-28T09:52:35.729Z,936.56
2023-04-28T09:53:35.783Z,936.56
2023-04-28T09:54:35.711Z,936.64
2023-04-28T09:55:35.706Z,936.61
2023-04-28T09:56:35.747Z,936.62
2023-04-28T09:57:35.689Z,936.65
2023-04-28T09:58:35.673Z,936.59
2023-04-28T09:59:35.656Z,936.54
2023-04-28T10:00:35.693Z,936.57
2023-04-28T10:01:35.772Z,936.46
2023-04-28T10:02:42.772Z,936.55
2023-04-28T10:03:36.743Z,936.57
2023-04-28T10:04:35.700Z,936.60
2023-04-28T10:05:35.936Z,936.60
2023-04-28T10:06:35.649Z,936.59
2023-04-28T10:07:35.569Z,936.61
2023-04-28T10:08:35.583Z,936.64
2023-04-28T10:09:35.582Z,936.67
2023-04-28T10:10:35.541Z,936.61
2023-04-28T10:11:35.581Z,936.61
2023-04-28T10:12:35.515Z,936.57
2023-04-28T10:13:35.532Z,936.45
2023-04-28T10:14:35.524Z,936.53
2023-04-28T10:15:35.644Z,936.49
2023-04-28T10:16:40.132Z,936.46
2023-04-28T10:17:35.469Z,936.50
2023-04-28T10:18:35.513Z,936.40
2023-04-28T10:19:35.446Z,936.45
2023-04-28T10:20:35.475Z,936.44
2023-04-28T10:21:35.414Z,936.40
2023-04-28T10:22:35.447Z,936.49
2023-04-28T10:23:35.408Z,936.52
2023-04-28T10:24:35.596Z,936.46
2023-04-28T10:25:35.394Z,936.44
2023-04-28T10:26:35.482Z,936.48
2023-04-28T10:27:35.427Z,936.47
2023-04-28T10:28:35.361Z,936.50
2023-04-28T10:29:35.369Z,936.52
2023-04-28T10:30:36.069Z,936.56
2023-04-28T10:31:35.352Z,936.62
2023-04-28T10:32:35.395Z,936.60
2023-04-28T10:33:35.294Z,936.63
2023-04-28T10:34:36.134Z,936.60
2023-04-28T10:35:35.280Z,936.67
2023-04-28T10:36:36.508Z,936.58
2023-04-28T10:37:35.280Z,936.60
2023-04-28T10:38:35.310Z,936.51
2023-04-28T10:39:36.112Z,936.50
2023-04-28T10:40:35.226Z,936.55
2023-04-28T10:41:35.292Z,936.49
2023-04-28T10:42:35.204Z,936.56
2023-04-28T10:43:35.269Z,936.48
2023-04-28T10:44:35.174Z,936.37
2023-04-28T10:45:35.269Z,936.30
2023-04-28T10:46:35.235Z,936.57
2023-04-28T10:47:35.228Z,936.62
2023-04-28T10:48:35.216Z,936.69
2023-04-28T10:49:35.154Z,936.62
2023-04-28T10:50:39.155Z,936.58
2023-04-28T10:51:35.128Z,936.68
2023-04-28T10:52:35.138Z,936.59
2023-04-28T10:53:35.153Z,936.65
2023-04-28T10:54:35.080Z,936.68
2023-04-28T10:55:35.071Z,936.67
2023-04-28T10:56:35.131Z,936.78
2023-04-28T10:57:35.064Z,936.70
2023-04-28T10:58:35.040Z,936.72
2023-04-28T10:59:35.031Z,936.76
2023-04-28T11:00:35.008Z,936.80
2023-04-28T11:01:35.165Z,936.80
2023-04-28T11:02:35.139Z,936.75
2023-04-28T11:03:35.117Z,936.77
2023-04-28T11:04:35.216Z,936.79
2023-04-28T11:05:34.963Z,936.74
2023-04-28T11:06:34.977Z,936.84
2023-04-28T11:07:34.934Z,936.81
2023-04-28T11:08:34.942Z,936.83
2023-04-28T11:09:34.939Z,936.83
2023-04-28T11:10:34.909Z,936.87
2023-04-28T11:11:35.086Z,936.78
2023-04-28T11:12:34.908Z,936.80
2023-04-28T11:13:34.883Z,936.85
2023-04-28T11:14:34.914Z,936.89
2023-04-28T11:15:34.841Z,936.83
2023-04-28T11:16:34.893Z,936.90
2023-04-28T11:17:34.853Z,936.93
2023-04-28T11:18:34.829Z,936.92
2023-04-28T11:19:34.825Z,936.96
2023-04-28T11:20:34.851Z,936.99
2023-04-28T11:21:34.812Z,936.98
2023-04-28T11:22:34.778Z,937.04
2023-04-28T11:23:34.759Z,936.97
2023-04-28T11:24:34.795Z,937.00
2023-04-28T11:25:34.738Z,936.92
2023-04-28T11:26:34.739Z,937.00
2023-04-28T11:27:34.730Z,937.01
2023-04-28T11:28:34.715Z,936.99
2023-04-28T11:29:34.711Z,937.02
2023-04-28T11:30:34.763Z,937.10
2023-04-28T11:31:34.727Z,937.01
2023-04-28T11:32:34.761Z,937.07
2023-04-28T11:33:34.658Z,937.02
2023-04-28T11:34:34.645Z,937.02
2023-04-28T11:35:34.707Z,937.09
2023-04-28T11:36:34.664Z,937.02
2023-04-28T11:37:34.619Z,937.03
2023-04-28T11:38:34.598Z,937.08
2023-04-28T11:39:34.587Z,937.02
2023-04-28T11:40:34.611Z,937.00
2023-04-28T11:43:50.886Z,937.04
2023-04-28T11:44:50.822Z,937.03
2023-04-28T11:45:50.911Z,937.07
2023-04-28T11:46:50.964Z,937.04
2023-04-28T11:47:50.820Z,937.05
2023-04-28T11:48:50.779Z,937.09
2023-04-28T11:49:50.768Z,937.08
2023-04-28T11:50:50.795Z,937.08
2023-04-28T11:51:50.870Z,937.15
2023-04-28T11:52:52.539Z,937.08
2023-04-28T11:53:50.736Z,937.12
2023-04-28T11:54:50.705Z,937.02
2023-04-28T11:55:50.696Z,936.99
2023-04-28T11:56:50.723Z,937.01
2023-04-28T11:57:50.695Z,937.04
2023-04-28T11:58:50.718Z,937.04
2023-04-28T11:59:51.052Z,936.94
2023-04-28T12:00:50.652Z,937.01
2023-04-28T12:01:50.682Z,936.99
2023-04-28T12:02:50.698Z,937.00
2023-04-28T12:03:51.061Z,936.97
2023-04-28T12:04:50.659Z,937.01
2023-04-28T12:05:50.591Z,936.96
2023-04-28T12:06:50.577Z,937.05
2023-04-28T12:07:50.650Z,937.06
2023-04-28T12:08:50.604Z,937.11
2023-04-28T12:09:50.592Z,937.12
2023-04-28T12:10:50.592Z,937.09
2023-04-28T12:11:50.544Z,937.08
2023-04-28T12:12:52.857Z,937.09
2023-04-28T12:13:50.554Z,937.09
2023-04-28T12:14:50.538Z,937.10
2023-04-28T12:15:50.600Z,937.13
2023-04-28T12:16:50.500Z,937.08
2023-04-28T12:17:50.699Z,937.11
2023-04-28T12:18:50.450Z,937.14
2023-04-28T12:19:50.460Z,937.13
2023-04-28T12:20:50.454Z,937.13
2023-04-28T12:21:50.416Z,937.15
2023-04-28T12:22:50.450Z,937.05
2023-04-28T12:23:50.416Z,937.13
2023-04-28T12:24:50.396Z,937.11
2023-04-28T12:25:50.978Z,937.12
2023-04-28T12:26:50.361Z,937.06
2023-04-28T12:27:50.379Z,937.12
2023-04-28T12:28:50.373Z,937.11
2023-04-28T12:29:50.469Z,937.11
2023-04-28T12:30:50.327Z,936.98
2023-04-28T12:31:50.359Z,937.17